Řízení letového provozu České republiky
Letiste: LKKU Aktualizace: 27.02.2017 11:06:08  UTC
 METAR LKKU 27.02. 11:00 ...
METAR LKKU 271100Z 15008KT CAVOK 12/M04 Q1013 RMK REG QNH 1004=